sensor_id;sensor_type;location;lat;lon;timestamp;pressure;altitude;pressure_sealevel;temperature;humidity
23899;BME280;20544;50.018;20.010;2023-05-24T00:00:41;98426.84;;;17.09;100.00
23899;BME280;20544;50.018;20.010;2023-05-24T00:04:01;98427.31;;;17.06;100.00
23899;BME280;20544;50.018;20.010;2023-05-24T00:07:19;98431.16;;;16.98;100.00
23899;BME280;20544;50.018;20.010;2023-05-24T00:10:38;98428.69;;;16.97;100.00
23899;BME280;20544;50.018;20.010;2023-05-24T00:13:56;98426.85;;;16.97;100.00
23899;BME280;20544;50.018;20.010;2023-05-24T00:17:13;98428.69;;;16.97;100.00
23899;BME280;20544;50.018;20.010;2023-05-24T00:20:30;98426.25;;;16.95;100.00
23899;BME280;20544;50.018;20.010;2023-05-24T00:23:48;98434.30;;;16.95;100.00
23899;BME280;20544;50.018;20.010;2023-05-24T00:27:05;98432.89;;;16.93;100.00
23899;BME280;20544;50.018;20.010;2023-05-24T00:30:21;98425.75;;;16.87;100.00
23899;BME280;20544;50.018;20.010;2023-05-24T00:33:38;98428.67;;;16.85;100.00
23899;BME280;20544;50.018;20.010;2023-05-24T00:36:55;98435.06;;;16.84;100.00
23899;BME280;20544;50.018;20.010;2023-05-24T00:40:12;98427.63;;;16.86;100.00
23899;BME280;20544;50.018;20.010;2023-05-24T00:43:30;98423.88;;;16.87;100.00
23899;BME280;20544;50.018;20.010;2023-05-24T00:46:46;98432.16;;;16.86;100.00
23899;BME280;20544;50.018;20.010;2023-05-24T00:50:03;98426.44;;;16.82;100.00
23899;BME280;20544;50.018;20.010;2023-05-24T00:53:26;98424.12;;;16.86;100.00
23899;BME280;20544;50.018;20.010;2023-05-24T00:56:43;98422.48;;;16.85;100.00
23899;BME280;20544;50.018;20.010;2023-05-24T01:00:00;98425.16;;;16.85;100.00
23899;BME280;20544;50.018;20.010;2023-05-24T01:03:20;98423.08;;;16.87;100.00
23899;BME280;20544;50.018;20.010;2023-05-24T01:06:44;98425.64;;;16.81;100.00
23899;BME280;20544;50.018;20.010;2023-05-24T01:10:12;98425.28;;;16.78;100.00
23899;BME280;20544;50.018;20.010;2023-05-24T01:13:33;98433.91;;;16.80;100.00
23899;BME280;20544;50.018;20.010;2023-05-24T01:17:03;98431.23;;;16.80;100.00
23899;BME280;20544;50.018;20.010;2023-05-24T01:20:20;98435.39;;;16.76;100.00
23899;BME280;20544;50.018;20.010;2023-05-24T01:23:46;98429.68;;;16.72;100.00
23899;BME280;20544;50.018;20.010;2023-05-24T01:27:14;98440.06;;;16.69;100.00
23899;BME280;20544;50.018;20.010;2023-05-24T01:30:31;98439.23;;;16.68;100.00
23899;BME280;20544;50.018;20.010;2023-05-24T01:33:54;98440.63;;;16.71;100.00
23899;BME280;20544;50.018;20.010;2023-05-24T01:37:10;98440.19;;;16.74;100.00
23899;BME280;20544;50.018;20.010;2023-05-24T01:40:27;98435.52;;;16.69;100.00
23899;BME280;20544;50.018;20.010;2023-05-24T01:43:49;98438.66;;;16.66;100.00
23899;BME280;20544;50.018;20.010;2023-05-24T01:47:16;98443.19;;;16.65;100.00
23899;BME280;20544;50.018;20.010;2023-05-24T01:50:41;98443.86;;;16.61;100.00
23899;BME280;20544;50.018;20.010;2023-05-24T01:54:00;98442.02;;;16.61;100.00
23899;BME280;20544;50.018;20.010;2023-05-24T01:57:20;98447.38;;;16.61;100.00
23899;BME280;20544;50.018;20.010;2023-05-24T02:00:39;98444.70;;;16.61;100.00
23899;BME280;20544;50.018;20.010;2023-05-24T02:03:56;98442.25;;;16.60;100.00
23899;BME280;20544;50.018;20.010;2023-05-24T02:07:15;98436.30;;;16.58;100.00
23899;BME280;20544;50.018;20.010;2023-05-24T02:10:32;98433.63;;;16.58;100.00
23899;BME280;20544;50.018;20.010;2023-05-24T02:13:54;98436.30;;;16.58;100.00
23899;BME280;20544;50.018;20.010;2023-05-24T02:17:11;98435.70;;;16.56;100.00
23899;BME280;20544;50.018;20.010;2023-05-24T02:20:28;98435.27;;;16.59;100.00
23899;BME280;20544;50.018;20.010;2023-05-24T02:23:48;98433.75;;;16.63;100.00
23899;BME280;20544;50.018;20.010;2023-05-24T02:27:05;98442.83;;;16.62;100.00
23899;BME280;20544;50.018;20.010;2023-05-24T02:30:23;98440.98;;;16.62;100.00
23899;BME280;20544;50.018;20.010;2023-05-24T02:33:40;98441.53;;;16.53;100.00
23899;BME280;20544;50.018;20.010;2023-05-24T02:36:57;98444.78;;;16.55;100.00
23899;BME280;20544;50.018;20.010;2023-05-24T02:40:15;98443.38;;;16.52;100.00
23899;BME280;20544;50.018;20.010;2023-05-24T02:43:33;98444.45;;;16.51;100.00
23899;BME280;20544;50.018;20.010;2023-05-24T02:46:51;98445.56;;;16.43;100.00
23899;BME280;20544;50.018;20.010;2023-05-24T02:50:09;98447.33;;;16.49;100.00
23899;BME280;20544;50.018;20.010;2023-05-24T02:53:29;98449.56;;;16.53;100.00
23899;BME280;20544;50.018;20.010;2023-05-24T02:56:45;98450.84;;;16.50;100.00
23899;BME280;20544;50.018;20.010;2023-05-24T03:00:06;98446.77;;;16.47;100.00
23899;BME280;20544;50.018;20.010;2023-05-24T03:03:25;98447.56;;;16.48;100.00
23899;BME280;20544;50.018;20.010;2023-05-24T03:06:45;98457.31;;;16.42;100.00
23899;BME280;20544;50.018;20.010;2023-05-24T03:10:02;98455.00;;;16.46;100.00
23899;BME280;20544;50.018;20.010;2023-05-24T03:13:22;98460.81;;;16.43;100.00
23899;BME280;20544;50.018;20.010;2023-05-24T03:16:39;98464.89;;;16.45;100.00
23899;BME280;20544;50.018;20.010;2023-05-24T03:19:57;98452.68;;;16.49;100.00
23899;BME280;20544;50.018;20.010;2023-05-24T03:23:14;98459.44;;;16.52;100.00
23899;BME280;20544;50.018;20.010;2023-05-24T03:26:34;98455.72;;;16.53;100.00
23899;BME280;20544;50.018;20.010;2023-05-24T03:29:50;98464.80;;;16.52;100.00
23899;BME280;20544;50.018;20.010;2023-05-24T03:33:08;98470.14;;;16.52;100.00
23899;BME280;20544;50.018;20.010;2023-05-24T03:36:25;98464.89;;;16.45;100.00
23899;BME280;20544;50.018;20.010;2023-05-24T03:39:42;98467.75;;;16.32;100.00
23899;BME280;20544;50.018;20.010;2023-05-24T03:43:06;98466.41;;;16.41;100.00
23899;BME280;20544;50.018;20.010;2023-05-24T03:46:29;98475.23;;;16.42;100.00
23899;BME280;20544;50.018;20.010;2023-05-24T03:49:46;98472.13;;;16.45;100.00
23899;BME280;20544;50.018;20.010;2023-05-24T03:53:03;98479.69;;;16.48;100.00
23899;BME280;20544;50.018;20.010;2023-05-24T03:56:20;98485.27;;;16.46;100.00
23899;BME280;20544;50.018;20.010;2023-05-24T03:59:37;98489.11;;;16.50;100.00
23899;BME280;20544;50.018;20.010;2023-05-24T04:02:54;98499.82;;;16.50;100.00
23899;BME280;20544;50.018;20.010;2023-05-24T04:06:11;98504.13;;;16.52;100.00
23899;BME280;20544;50.018;20.010;2023-05-24T04:09:28;98498.55;;;16.53;100.00
23899;BME280;20544;50.018;20.010;2023-05-24T04:12:45;98504.27;;;16.57;100.00
23899;BME280;20544;50.018;20.010;2023-05-24T04:16:02;98505.44;;;16.61;100.00
23899;BME280;20544;50.018;20.010;2023-05-24T04:19:19;98505.67;;;16.59;100.00
23899;BME280;20544;50.018;20.010;2023-05-24T04:22:39;98509.02;;;16.55;100.00
23899;BME280;20544;50.018;20.010;2023-05-24T04:25:56;98516.61;;;16.58;100.00
23899;BME280;20544;50.018;20.010;2023-05-24T04:29:13;98528.13;;;16.58;100.00
23899;BME280;20544;50.018;20.010;2023-05-24T04:32:34;98534.98;;;16.54;100.00
23899;BME280;20544;50.018;20.010;2023-05-24T04:35:53;98531.40;;;16.60;100.00
23899;BME280;20544;50.018;20.010;2023-05-24T04:39:10;98541.38;;;16.53;100.00
23899;BME280;20544;50.018;20.010;2023-05-24T04:42:27;98553.72;;;16.54;100.00
23899;BME280;20544;50.018;20.010;2023-05-24T04:45:44;98553.48;;;16.56;100.00
23899;BME280;20544;50.018;20.010;2023-05-24T04:49:03;98556.27;;;16.49;100.00
23899;BME280;20544;50.018;20.010;2023-05-24T04:52:21;98554.52;;;16.55;100.00
23899;BME280;20544;50.018;20.010;2023-05-24T04:55:38;98566.73;;;16.50;100.00
23899;BME280;20544;50.018;20.010;2023-05-24T04:58:56;98564.06;;;16.50;100.00
23899;BME280;20544;50.018;20.010;2023-05-24T05:02:14;98571.66;;;16.54;100.00
23899;BME280;20544;50.018;20.010;2023-05-24T05:05:31;98578.28;;;16.51;100.00
23899;BME280;20544;50.018;20.010;2023-05-24T05:08:48;98575.44;;;16.46;100.00
23899;BME280;20544;50.018;20.010;2023-05-24T05:12:05;98584.06;;;16.48;100.00
23899;BME280;20544;50.018;20.010;2023-05-24T05:15:24;98586.14;;;16.46;100.00
23899;BME280;20544;50.018;20.010;2023-05-24T05:18:41;98596.27;;;16.44;100.00
23899;BME280;20544;50.018;20.010;2023-05-24T05:21:57;98600.13;;;16.48;100.00
23899;BME280;20544;50.018;20.010;2023-05-24T05:25:14;98600.13;;;16.48;100.00
23899;BME280;20544;50.018;20.010;2023-05-24T05:28:31;98603.27;;;16.45;100.00
23899;BME280;20544;50.018;20.010;2023-05-24T05:31:48;98605.34;;;16.43;100.00
23899;BME280;20544;50.018;20.010;2023-05-24T05:35:06;98606.14;;;16.43;100.00
23899;BME280;20544;50.018;20.010;2023-05-24T05:38:23;98606.61;;;16.40;100.00
23899;BME280;20544;50.018;20.010;2023-05-24T05:41:40;98614.92;;;16.32;100.00
23899;BME280;20544;50.018;20.010;2023-05-24T05:45:03;98617.60;;;16.32;100.00
23899;BME280;20544;50.018;20.010;2023-05-24T05:48:20;98622.38;;;16.30;100.00
23899;BME280;20544;50.018;20.010;2023-05-24T05:51:37;98621.91;;;16.33;100.00
23899;BME280;20544;50.018;20.010;2023-05-24T05:54:54;98632.16;;;16.36;100.00
23899;BME280;20544;50.018;20.010;2023-05-24T05:58:10;98629.05;;;16.39;100.00
23899;BME280;20544;50.018;20.010;2023-05-24T06:01:27;98636.63;;;16.42;100.00
23899;BME280;20544;50.018;20.010;2023-05-24T06:04:43;98641.17;;;16.42;100.00
23899;BME280;20544;50.018;20.010;2023-05-24T06:08:00;98643.84;;;16.42;100.00
23899;BME280;20544;50.018;20.010;2023-05-24T06:11:18;98646.29;;;16.43;100.00
23899;BME280;20544;50.018;20.010;2023-05-24T06:14:35;98644.82;;;16.47;100.00
23899;BME280;20544;50.018;20.010;2023-05-24T06:17:52;98648.08;;;16.49;100.00
23899;BME280;20544;50.018;20.010;2023-05-24T06:21:09;98651.79;;;16.48;100.00
23899;BME280;20544;50.018;20.010;2023-05-24T06:24:26;98650.17;;;16.47;100.00
23899;BME280;20544;50.018;20.010;2023-05-24T06:27:45;98660.66;;;16.49;100.00
23899;BME280;20544;50.018;20.010;2023-05-24T06:31:01;98667.27;;;16.46;100.00
23899;BME280;20544;50.018;20.010;2023-05-24T06:34:19;98673.28;;;16.42;100.00
23899;BME280;20544;50.018;20.010;2023-05-24T06:37:38;98674.92;;;16.43;100.00
23899;BME280;20544;50.018;20.010;2023-05-24T06:40:55;98681.09;;;16.43;100.00
23899;BME280;20544;50.018;20.010;2023-05-24T06:44:11;98687.70;;;16.41;100.00
23899;BME280;20544;50.018;20.010;2023-05-24T06:47:30;98690.00;;;16.37;100.00
23899;BME280;20544;50.018;20.010;2023-05-24T06:50:47;98693.05;;;16.41;100.00
23899;BME280;20544;50.018;20.010;2023-05-24T06:54:04;98702.30;;;16.45;100.00
23899;BME280;20544;50.018;20.010;2023-05-24T06:57:21;98702.07;;;16.46;100.00
23899;BME280;20544;50.018;20.010;2023-05-24T07:00:38;98705.78;;;16.45;100.00
23899;BME280;20544;50.018;20.010;2023-05-24T07:03:55;98702.73;;;16.42;100.00
23899;BME280;20544;50.018;20.010;2023-05-24T07:07:12;98711.56;;;16.42;100.00
23899;BME280;20544;50.018;20.010;2023-05-24T07:10:28;98706.81;;;16.44;100.00
23899;BME280;20544;50.018;20.010;2023-05-24T07:13:45;98712.77;;;16.46;100.00
23899;BME280;20544;50.018;20.010;2023-05-24T07:17:02;98719.55;;;16.49;100.00
23899;BME280;20544;50.018;20.010;2023-05-24T07:20:19;98724.66;;;16.50;100.00
23899;BME280;20544;50.018;20.010;2023-05-24T07:23:37;98717.23;;;16.53;100.00
23899;BME280;20544;50.018;20.010;2023-05-24T07:26:53;98726.53;;;16.50;100.00
23899;BME280;20544;50.018;20.010;2023-05-24T07:30:11;98734.19;;;16.46;100.00
23899;BME280;20544;50.018;20.010;2023-05-24T07:33:30;98737.82;;;16.52;100.00
23899;BME280;20544;50.018;20.010;2023-05-24T07:36:47;98740.22;;;16.60;100.00
23899;BME280;20544;50.018;20.010;2023-05-24T07:40:07;98739.33;;;16.66;100.00
23899;BME280;20544;50.018;20.010;2023-05-24T07:43:24;98743.65;;;16.68;100.00
23899;BME280;20544;50.018;20.010;2023-05-24T07:46:43;98751.45;;;16.69;100.00
23899;BME280;20544;50.018;20.010;2023-05-24T07:50:07;98756.28;;;16.60;100.00
23899;BME280;20544;50.018;20.010;2023-05-24T07:53:25;98764.55;;;16.59;100.00
23899;BME280;20544;50.018;20.010;2023-05-24T07:56:42;98767.80;;;16.61;100.00
23899;BME280;20544;50.018;20.010;2023-05-24T08:00:00;98765.50;;;16.64;100.00
23899;BME280;20544;50.018;20.010;2023-05-24T08:03:22;98760.83;;;16.60;100.00
23899;BME280;20544;50.018;20.010;2023-05-24T08:06:39;98767.75;;;16.68;100.00
23899;BME280;20544;50.018;20.010;2023-05-24T08:09:57;98766.11;;;16.66;100.00
23899;BME280;20544;50.018;20.010;2023-05-24T08:13:14;98779.77;;;16.58;100.00
23899;BME280;20544;50.018;20.010;2023-05-24T08:16:32;98774.88;;;16.55;100.00
23899;BME280;20544;50.018;20.010;2023-05-24T08:19:55;98785.81;;;16.54;100.00
23899;BME280;20544;50.018;20.010;2023-05-24T08:23:14;98788.98;;;16.44;100.00
23899;BME280;20544;50.018;20.010;2023-05-24T08:26:30;98799.95;;;16.36;100.00
23899;BME280;20544;50.018;20.010;2023-05-24T08:29:47;98801.44;;;16.31;100.00
23899;BME280;20544;50.018;20.010;2023-05-24T08:33:05;98809.08;;;16.28;100.00
23899;BME280;20544;50.018;20.010;2023-05-24T08:36:21;98802.54;;;16.24;100.00
23899;BME280;20544;50.018;20.010;2023-05-24T08:39:38;98808.95;;;16.16;100.00
23899;BME280;20544;50.018;20.010;2023-05-24T08:42:58;98804.66;;;16.15;100.00
23899;BME280;20544;50.018;20.010;2023-05-24T08:46:19;98813.75;;;16.07;100.00
23899;BME280;20544;50.018;20.010;2023-05-24T08:49:36;98824.26;;;16.09;100.00
23899;BME280;20544;50.018;20.010;2023-05-24T08:52:55;98826.55;;;16.05;100.00
23899;BME280;20544;50.018;20.010;2023-05-24T08:56:13;98836.18;;;16.06;100.00
23899;BME280;20544;50.018;20.010;2023-05-24T08:59:56;98840.97;;;15.97;100.00
23899;BME280;20544;50.018;20.010;2023-05-24T09:03:12;98843.45;;;15.99;100.00
23899;BME280;20544;50.018;20.010;2023-05-24T09:06:31;98844.48;;;15.98;100.00
23899;BME280;20544;50.018;20.010;2023-05-24T09:09:52;98849.22;;;15.96;100.00
23899;BME280;20544;50.018;20.010;2023-05-24T09:13:14;98849.66;;;15.93;100.00
23899;BME280;20544;50.018;20.010;2023-05-24T09:16:31;98861.17;;;15.93;100.00
23899;BME280;20544;50.018;20.010;2023-05-24T09:19:48;98862.64;;;15.89;100.00
23899;BME280;20544;50.018;20.010;2023-05-24T09:23:07;98870.89;;;15.88;100.00
23899;BME280;20544;50.018;20.010;2023-05-24T09:26:24;98872.55;;;15.82;100.00
23899;BME280;20544;50.018;20.010;2023-05-24T09:29:43;98873.15;;;15.77;100.00
23899;BME280;20544;50.018;20.010;2023-05-24T09:33:02;98881.61;;;15.74;100.00
23899;BME280;20544;50.018;20.010;2023-05-24T09:36:21;98887.37;;;15.71;100.00
23899;BME280;20544;50.018;20.010;2023-05-24T09:39:38;98901.63;;;15.58;100.00
23899;BME280;20544;50.018;20.010;2023-05-24T09:43:07;98898.59;;;15.48;100.00
23899;BME280;20544;50.018;20.010;2023-05-24T09:46:24;98905.80;;;15.41;100.00
23899;BME280;20544;50.018;20.010;2023-05-24T09:49:40;98901.70;;;15.38;100.00
23899;BME280;20544;50.018;20.010;2023-05-24T09:53:00;98900.48;;;15.34;100.00
23899;BME280;20544;50.018;20.010;2023-05-24T09:56:18;98904.83;;;15.22;100.00
23899;BME280;20544;50.018;20.010;2023-05-24T09:59:38;98902.34;;;15.20;100.00
23899;BME280;20544;50.018;20.010;2023-05-24T10:03:03;98915.89;;;15.25;100.00
23899;BME280;20544;50.018;20.010;2023-05-24T10:09:27;98926.20;;;15.22;100.00
23899;BME280;20544;50.018;20.010;2023-05-24T10:12:45;98929.47;;;15.24;100.00
23899;BME280;20544;50.018;20.010;2023-05-24T10:16:02;98929.48;;;15.17;100.00
23899;BME280;20544;50.018;20.010;2023-05-24T10:19:19;98931.13;;;15.18;100.00
23899;BME280;20544;50.018;20.010;2023-05-24T10:22:39;98935.86;;;15.16;100.00
23899;BME280;20544;50.018;20.010;2023-05-24T10:26:02;98935.23;;;15.14;100.00
23899;BME280;20544;50.018;20.010;2023-05-24T10:29:23;98930.72;;;15.08;100.00
23899;BME280;20544;50.018;20.010;2023-05-24T10:32:45;98935.25;;;15.07;100.00
23899;BME280;20544;50.018;20.010;2023-05-24T10:36:04;98941.22;;;15.09;100.00
23899;BME280;20544;50.018;20.010;2023-05-24T10:39:26;98943.47;;;14.99;100.00
23899;BME280;20544;50.018;20.010;2023-05-24T10:42:41;98942.24;;;15.08;100.00
23899;BME280;20544;50.018;20.010;2023-05-24T10:45:58;98945.91;;;15.14;100.00
23899;BME280;20544;50.018;20.010;2023-05-24T10:49:16;98951.47;;;15.12;100.00
23899;BME280;20544;50.018;20.010;2023-05-24T10:52:36;98951.67;;;15.17;100.00
23899;BME280;20544;50.018;20.010;2023-05-24T10:55:59;98960.52;;;15.18;100.00
23899;BME280;20544;50.018;20.010;2023-05-24T10:59:29;98965.03;;;15.24;100.00
23899;BME280;20544;50.018;20.010;2023-05-24T11:02:59;98962.98;;;15.19;100.00
23899;BME280;20544;50.018;20.010;2023-05-24T11:06:17;98965.65;;;15.19;100.00
23899;BME280;20544;50.018;20.010;2023-05-24T11:09:35;98973.23;;;15.23;100.00
23899;BME280;20544;50.018;20.010;2023-05-24T11:13:01;98973.64;;;15.26;100.00
23899;BME280;20544;50.018;20.010;2023-05-24T11:16:35;98975.09;;;15.22;100.00
23899;BME280;20544;50.018;20.010;2023-05-24T11:19:53;98970.37;;;15.17;100.00
23899;BME280;20544;50.018;20.010;2023-05-24T11:23:12;98974.29;;;15.22;100.00
23899;BME280;20544;50.018;20.010;2023-05-24T11:26:29;98978.20;;;15.19;100.00
23899;BME280;20544;50.018;20.010;2023-05-24T11:29:47;98982.69;;;15.32;100.00
23899;BME280;20544;50.018;20.010;2023-05-24T11:33:04;98975.30;;;15.34;100.00
23899;BME280;20544;50.018;20.010;2023-05-24T11:36:21;98981.45;;;15.34;100.00
23899;BME280;20544;50.018;20.010;2023-05-24T11:39:39;98990.29;;;15.42;100.00
23899;BME280;20544;50.018;20.010;2023-05-24T11:42:57;98990.29;;;15.42;100.00
23899;BME280;20544;50.018;20.010;2023-05-24T11:46:14;98990.69;;;15.39;100.00
23899;BME280;20544;50.018;20.010;2023-05-24T11:52:39;98994.61;;;15.43;100.00
23899;BME280;20544;50.018;20.010;2023-05-24T11:55:55;98997.26;;;15.49;100.00
23899;BME280;20544;50.018;20.010;2023-05-24T11:59:15;98998.69;;;15.52;100.00
23899;BME280;20544;50.018;20.010;2023-05-24T12:02:35;98993.13;;;15.53;100.00
23899;BME280;20544;50.018;20.010;2023-05-24T12:05:57;98993.34;;;15.52;100.00
23899;BME280;20544;50.018;20.010;2023-05-24T12:09:16;98997.23;;;15.63;100.00
23899;BME280;20544;50.018;20.010;2023-05-24T12:12:34;98994.75;;;15.68;100.00
23899;BME280;20544;50.018;20.010;2023-05-24T12:15:55;98993.72;;;15.69;100.00
23899;BME280;20544;50.018;20.010;2023-05-24T12:19:17;98998.05;;;15.63;100.00
23899;BME280;20544;50.018;20.010;2023-05-24T12:22:36;99004.02;;;15.65;100.00
23899;BME280;20544;50.018;20.010;2023-05-24T12:25:56;99006.69;;;15.65;100.00
23899;BME280;20544;50.018;20.010;2023-05-24T12:29:14;99000.31;;;15.66;100.00
23899;BME280;20544;50.018;20.010;2023-05-24T12:32:32;98991.45;;;15.73;100.00
23899;BME280;20544;50.018;20.010;2023-05-24T12:35:49;99002.77;;;15.68;100.00
23899;BME280;20544;50.018;20.010;2023-05-24T12:39:20;98999.28;;;15.61;100.00
23899;BME280;20544;50.018;20.010;2023-05-24T12:42:39;98994.75;;;15.68;100.00
23899;BME280;20544;50.018;20.010;2023-05-24T12:46:00;98989.00;;;15.64;100.00
23899;BME280;20544;50.018;20.010;2023-05-24T12:49:17;98997.42;;;15.61;100.00
23899;BME280;20544;50.018;20.010;2023-05-24T12:52:34;98989.63;;;15.60;100.00
23899;BME280;20544;50.018;20.010;2023-05-24T12:55:50;98998.05;;;15.63;100.00
23899;BME280;20544;50.018;20.010;2023-05-24T12:59:09;98997.42;;;15.68;100.00
23899;BME280;20544;50.018;20.010;2023-05-24T13:02:25;98990.21;;;15.68;100.00
23899;BME280;20544;50.018;20.010;2023-05-24T13:05:44;98993.50;;;15.71;100.00
23899;BME280;20544;50.018;20.010;2023-05-24T13:09:02;98992.27;;;15.73;100.00
23899;BME280;20544;50.018;20.010;2023-05-24T13:12:20;98991.45;;;15.73;100.00
23899;BME280;20544;50.018;20.010;2023-05-24T13:15:37;98992.48;;;15.72;100.00
23899;BME280;20544;50.018;20.010;2023-05-24T13:18:54;98990.83;;;15.71;100.00
23899;BME280;20544;50.018;20.010;2023-05-24T13:22:13;98997.83;;;15.72;100.00
23899;BME280;20544;50.018;20.010;2023-05-24T13:25:30;98989.16;;;15.76;100.00
23899;BME280;20544;50.018;20.010;2023-05-24T13:28:46;98991.45;;;15.73;100.00
23899;BME280;20544;50.018;20.010;2023-05-24T13:32:05;98988.97;;;15.78;100.00
23899;BME280;20544;50.018;20.010;2023-05-24T13:35:22;98992.45;;;15.78;100.00
23899;BME280;20544;50.018;20.010;2023-05-24T13:38:39;98993.50;;;15.84;100.00
23899;BME280;20544;50.018;20.010;2023-05-24T13:42:00;98995.34;;;15.90;100.00
23899;BME280;20544;50.018;20.010;2023-05-24T13:45:17;98993.06;;;15.94;100.00
23899;BME280;20544;50.018;20.010;2023-05-24T13:48:34;99000.83;;;16.02;100.00
23899;BME280;20544;50.018;20.010;2023-05-24T13:51:53;98998.34;;;16.07;100.00
23899;BME280;20544;50.018;20.010;2023-05-24T13:55:11;98999.17;;;16.08;100.00
23899;BME280;20544;50.018;20.010;2023-05-24T13:58:27;99001.45;;;16.04;100.00
23899;BME280;20544;50.018;20.010;2023-05-24T14:01:45;99001.01;;;16.07;100.00
23899;BME280;20544;50.018;20.010;2023-05-24T14:05:02;99009.47;;;16.04;100.00
23899;BME280;20544;50.018;20.010;2023-05-24T14:08:19;99003.77;;;15.94;100.00
23899;BME280;20544;50.018;20.010;2023-05-24T14:11:39;99009.30;;;15.99;100.00
23899;BME280;20544;50.018;20.010;2023-05-24T14:14:56;99007.86;;;15.96;100.00
23899;BME280;20544;50.018;20.010;2023-05-24T14:18:15;99008.05;;;16.01;100.00
23899;BME280;20544;50.018;20.010;2023-05-24T14:21:31;99002.55;;;15.83;100.00
23899;BME280;20544;50.018;20.010;2023-05-24T14:24:50;99005.63;;;15.87;100.00
23899;BME280;20544;50.018;20.010;2023-05-24T14:28:15;99000.25;;;15.93;100.00
23899;BME280;20544;50.018;20.010;2023-05-24T14:31:32;98994.68;;;15.95;100.00
23899;BME280;20544;50.018;20.010;2023-05-24T14:34:50;99002.95;;;15.87;100.00
23899;BME280;20544;50.018;20.010;2023-05-24T14:38:08;99003.98;;;15.85;100.00
23899;BME280;20544;50.018;20.010;2023-05-24T14:41:25;99000.47;;;15.92;100.00
23899;BME280;20544;50.018;20.010;2023-05-24T14:44:44;98999.63;;;15.98;100.00
23899;BME280;20544;50.018;20.010;2023-05-24T14:48:02;99006.00;;;15.97;100.00
23899;BME280;20544;50.018;20.010;2023-05-24T14:51:18;99003.95;;;15.92;100.00
23899;BME280;20544;50.018;20.010;2023-05-24T14:54:34;99002.52;;;15.96;100.00
23899;BME280;20544;50.018;20.010;2023-05-24T14:57:50;99000.88;;;15.89;100.00
23899;BME280;20544;50.018;20.010;2023-05-24T15:01:07;99008.89;;;15.89;100.00
23899;BME280;20544;50.018;20.010;2023-05-24T15:04:24;99008.52;;;15.85;100.00
23899;BME280;20544;50.018;20.010;2023-05-24T15:07:43;99005.63;;;15.87;100.00
23899;BME280;20544;50.018;20.010;2023-05-24T15:11:01;99016.92;;;15.95;100.00
23899;BME280;20544;50.018;20.010;2023-05-24T15:14:18;99020.39;;;16.03;100.00
23899;BME280;20544;50.018;20.010;2023-05-24T15:17:35;99025.53;;;15.97;100.00
23899;BME280;20544;50.018;20.010;2023-05-24T15:20:53;99016.95;;;15.82;100.00
23899;BME280;20544;50.018;20.010;2023-05-24T15:24:11;99021.89;;;15.85;100.00
23899;BME280;20544;50.018;20.010;2023-05-24T15:27:28;99014.05;;;15.90;100.00
23899;BME280;20544;50.018;20.010;2023-05-24T15:30:44;99010.14;;;15.93;100.00
23899;BME280;20544;50.018;20.010;2023-05-24T15:34:01;99010.54;;;15.96;100.00
23899;BME280;20544;50.018;20.010;2023-05-24T15:37:18;99016.70;;;15.97;100.00
23899;BME280;20544;50.018;20.010;2023-05-24T15:40:34;99023.52;;;15.86;100.00
23899;BME280;20544;50.018;20.010;2023-05-24T15:43:52;99025.78;;;15.89;100.00
23899;BME280;20544;50.018;20.010;2023-05-24T15:47:11;99025.78;;;15.89;100.00
23899;BME280;20544;50.018;20.010;2023-05-24T15:50:30;99026.63;;;15.83;100.00
23899;BME280;20544;50.018;20.010;2023-05-24T15:53:51;99025.59;;;15.84;100.00
23899;BME280;20544;50.018;20.010;2023-05-24T15:57:08;99032.59;;;15.85;100.00
23899;BME280;20544;50.018;20.010;2023-05-24T16:00:28;99034.20;;;15.86;100.00
23899;BME280;20544;50.018;20.010;2023-05-24T16:03:46;99033.58;;;15.77;100.00
23899;BME280;20544;50.018;20.010;2023-05-24T16:07:04;99037.09;;;15.78;100.00
23899;BME280;20544;50.018;20.010;2023-05-24T16:10:22;99046.14;;;15.70;100.00
23899;BME280;20544;50.018;20.010;2023-05-24T16:13:41;99051.73;;;15.62;100.00
23899;BME280;20544;50.018;20.010;2023-05-24T16:17:00;99044.33;;;15.57;100.00
23899;BME280;20544;50.018;20.010;2023-05-24T16:20:16;99049.27;;;15.53;100.00
23899;BME280;20544;50.018;20.010;2023-05-24T16:23:33;99048.66;;;15.45;100.00
23899;BME280;20544;50.018;20.010;2023-05-24T16:26:50;99063.25;;;15.42;100.00
23899;BME280;20544;50.018;20.010;2023-05-24T16:30:09;99054.41;;;15.35;100.00
23899;BME280;20544;50.018;20.010;2023-05-24T16:33:26;99058.13;;;15.41;100.00
23899;BME280;20544;50.018;20.010;2023-05-24T16:36:43;99061.42;;;15.29;100.00
23899;BME280;20544;50.018;20.010;2023-05-24T16:40:01;99064.29;;;15.34;100.00
23899;BME280;20544;50.018;20.010;2023-05-24T16:43:18;99070.88;;;15.32;100.00
23899;BME280;20544;50.018;20.010;2023-05-24T16:46:35;99067.98;;;15.33;100.00
23899;BME280;20544;50.018;20.010;2023-05-24T16:49:51;99074.16;;;15.27;100.00
23899;BME280;20544;50.018;20.010;2023-05-24T16:53:09;99077.86;;;15.13;100.00
23899;BME280;20544;50.018;20.010;2023-05-24T16:56:25;99076.39;;;15.10;100.00
23899;BME280;20544;50.018;20.010;2023-05-24T16:59:42;99080.53;;;15.13;100.00
23899;BME280;20544;50.018;20.010;2023-05-24T17:02:59;99077.43;;;15.23;100.00
23899;BME280;20544;50.018;20.010;2023-05-24T17:06:16;99088.75;;;15.25;100.00
23899;BME280;20544;50.018;20.010;2023-05-24T17:09:33;99087.30;;;15.22;100.00